Time;durP1;ratioP1;P1;durP2;ratioP2;P2;SDS_P1;SDS_P2;PMS_P1;PMS_P2;Temp;Humidity;BMP_temperature;BMP_pressure;BME280_temperature;BME280_humidity;BME280_pressure;Samples;Min_cycle;Max_cycle;Signal;HPM_P1;HPM_P2
2021/12/14 00:21:20;;;;;;;28.87;13.53;;;;;;;;;;4996008;28;20192;-79
2021/12/14 00:24:09;;;;;;;27.70;13.10;;;;;;;;;;5004103;28;20205;-79
2021/12/14 00:26:38;;;;;;;31.37;13.37;;;;;;;;;;5000497;28;20617;-79
2021/12/14 00:29:06;;;;;;;30.60;13.10;;;;;;;;;;5016966;22;20304;-80
2021/12/14 00:31:36;;;;;;;34.20;14.03;;;;;;;;;;5006223;28;20280;-81
2021/12/14 00:34:04;;;;;;;37.33;14.90;;;;;;;;;;5025242;28;20260;-80
2021/12/14 00:36:32;;;;;;;32.37;14.83;;;;;;;;;;5012188;28;20288;-80
2021/12/14 00:39:04;;;;;;;30.00;13.90;;;;;;;;;;5013288;28;20234;-83
2021/12/14 00:41:34;;;;;;;30.13;14.20;;;;;;;;;;5012569;28;20220;-83
2021/12/14 00:44:01;;;;;;;28.67;12.77;;;;;;;;;;5013408;28;20927;-82
2021/12/14 00:46:28;;;;;;;36.33;14.20;;;;;;;;;;5021901;28;20249;-83
2021/12/14 00:48:56;;;;;;;33.10;13.67;;;;;;;;;;5014649;28;20235;-83
2021/12/14 00:51:27;;;;;;;26.70;12.43;;;;;;;;;;5004513;28;20555;-83
2021/12/14 04:28:42;;;;;;;28.17;12.80;;;;;;;;;;5002172;28;20646;-81
2021/12/14 04:31:09;;;;;;;27.03;12.23;;;;;;;;;;4996660;28;20282;-80
2021/12/14 06:16:48;;;;;;;18.73;8.10;;;;;;;;;;4988228;28;20869;-80
2021/12/14 06:19:18;;;;;;;20.33;8.00;;;;;;;;;;4994100;28;20248;-80
2021/12/14 06:21:48;;;;;;;18.53;8.10;;;;;;;;;;4993681;28;20227;-79
2021/12/14 06:24:16;;;;;;;18.67;8.13;;;;;;;;;;5006926;28;20288;-81
2021/12/14 06:26:46;;;;;;;20.40;9.13;;;;;;;;;;5002342;28;20239;-79
2021/12/14 06:29:14;;;;;;;19.00;8.60;;;;;;;;;;5016989;22;20235;-80
2021/12/14 06:31:42;;;;;;;16.83;7.67;;;;;;;;;;5018274;28;20242;-80
2021/12/14 06:34:20;;;;;;;18.63;8.27;;;;;;;;;;5022089;28;20625;-81
2021/12/14 06:37:14;;;;;;;20.20;8.23;;;;;;;;;;5021085;28;20204;-81
2021/12/14 06:39:57;;;;;;;19.37;8.80;;;;;;;;;;5009610;28;20357;-80
2021/12/14 06:42:24;;;;;;;27.30;10.17;;;;;;;;;;5005225;28;20208;-82
2021/12/14 06:44:51;;;;;;;22.83;9.63;;;;;;;;;;5006992;28;20236;-81
2021/12/14 06:47:19;;;;;;;24.70;11.23;;;;;;;;;;5003775;28;20233;-81
2021/12/14 06:49:49;;;;;;;24.47;10.73;;;;;;;;;;5007814;28;20479;-82
2021/12/14 06:52:16;;;;;;;21.30;9.70;;;;;;;;;;5002472;28;20412;-81
2021/12/14 06:54:44;;;;;;;20.67;8.77;;;;;;;;;;5006306;28;20259;-82
2021/12/14 06:57:12;;;;;;;29.53;12.23;;;;;;;;;;5004125;28;20208;-81
2021/12/14 06:59:39;;;;;;;28.27;10.80;;;;;;;;;;5003374;28;20745;-80
2021/12/14 07:02:08;;;;;;;26.40;11.97;;;;;;;;;;5004866;28;20310;-81
2021/12/14 07:04:37;;;;;;;26.20;11.33;;;;;;;;;;5004450;28;20204;-81
2021/12/14 07:07:08;;;;;;;23.10;10.93;;;;;;;;;;5005760;28;20228;-80
2021/12/14 07:09:38;;;;;;;24.30;10.40;;;;;;;;;;5007346;28;20239;-81
2021/12/14 07:12:08;;;;;;;24.47;10.53;;;;;;;;;;5005386;28;20216;-81
2021/12/14 07:14:42;;;;;;;25.80;11.10;;;;;;;;;;5003294;28;20203;-80
2021/12/14 07:17:12;;;;;;;23.03;10.63;;;;;;;;;;5006546;28;20728;-82
2021/12/14 07:19:42;;;;;;;42.13;11.87;;;;;;;;;;5006888;28;20690;-81
2021/12/14 07:22:13;;;;;;;33.77;10.63;;;;;;;;;;5003020;28;20242;-81
2021/12/14 07:24:40;;;;;;;30.30;12.47;;;;;;;;;;5002534;28;20216;-81
2021/12/14 07:27:28;;;;;;;24.77;11.17;;;;;;;;;;5004855;28;20314;-81
2021/12/14 07:30:09;;;;;;;32.23;12.67;;;;;;;;;;5005255;28;20232;-81
2021/12/14 07:32:38;;;;;;;27.97;12.27;;;;;;;;;;5009829;28;20251;-81
2021/12/14 07:35:19;;;;;;;28.10;11.77;;;;;;;;;;5017898;28;20304;-81
2021/12/14 07:37:48;;;;;;;26.73;11.40;;;;;;;;;;5001156;28;20200;-81
2021/12/14 07:40:16;;;;;;;28.70;11.93;;;;;;;;;;4998904;28;20233;-80
2021/12/14 07:42:43;;;;;;;31.23;11.77;;;;;;;;;;4999655;28;20300;-81
2021/12/14 07:45:12;;;;;;;26.50;11.30;;;;;;;;;;5004995;28;20325;-81
2021/12/14 07:47:50;;;;;;;26.30;12.67;;;;;;;;;;5005175;28;20241;-81
2021/12/14 07:50:17;;;;;;;24.43;10.67;;;;;;;;;;5007448;28;20228;-81
2021/12/14 07:52:44;;;;;;;28.33;11.00;;;;;;;;;;5005353;28;20299;-82
2021/12/14 07:55:16;;;;;;;23.97;11.20;;;;;;;;;;5004075;28;20200;-80
2021/12/14 07:57:46;;;;;;;26.17;10.73;;;;;;;;;;5002347;28;20208;-81
2021/12/14 08:00:15;;;;;;;25.53;11.87;;;;;;;;;;4999968;28;20335;-80
2021/12/14 08:02:44;;;;;;;29.20;11.93;;;;;;;;;;5004546;28;20659;-81
2021/12/14 08:05:15;;;;;;;26.70;11.23;;;;;;;;;;5008292;28;20255;-81
2021/12/14 08:07:44;;;;;;;31.57;12.73;;;;;;;;;;5008881;28;20773;-81
2021/12/14 08:10:16;;;;;;;27.47;12.30;;;;;;;;;;5007415;28;20232;-82
2021/12/14 08:12:45;;;;;;;24.70;11.47;;;;;;;;;;5006698;28;20259;-79
2021/12/14 08:15:15;;;;;;;32.53;14.03;;;;;;;;;;5002972;28;20243;-82
2021/12/14 08:17:42;;;;;;;44.10;17.10;;;;;;;;;;5006388;28;20208;-81
2021/12/14 08:20:12;;;;;;;39.47;16.20;;;;;;;;;;5006003;28;20244;-81
2021/12/14 08:22:40;;;;;;;41.60;16.83;;;;;;;;;;5001043;28;20292;-81
2021/12/14 08:25:08;;;;;;;32.20;14.77;;;;;;;;;;5010438;28;20236;-80
2021/12/14 08:27:41;;;;;;;32.03;14.70;;;;;;;;;;5005078;28;20232;-80
2021/12/14 08:30:10;;;;;;;32.47;14.23;;;;;;;;;;5007282;28;20244;-80
2021/12/14 08:32:40;;;;;;;33.80;12.63;;;;;;;;;;5007115;28;20266;-80
2021/12/14 08:35:09;;;;;;;29.23;12.27;;;;;;;;;;5003908;28;20658;-82
2021/12/14 08:37:38;;;;;;;29.23;12.70;;;;;;;;;;5004087;28;20216;-80
2021/12/14 08:40:07;;;;;;;27.33;12.03;;;;;;;;;;5007049;28;20316;-81
2021/12/14 08:42:42;;;;;;;27.23;11.47;;;;;;;;;;5003239;28;20290;-81
2021/12/14 08:45:26;;;;;;;28.80;11.50;;;;;;;;;;5000514;28;20231;-80
2021/12/14 08:47:55;;;;;;;27.97;11.87;;;;;;;;;;4999638;28;20228;-82
2021/12/14 08:50:22;;;;;;;22.40;9.97;;;;;;;;;;4994323;28;20347;-80
2021/12/14 08:52:50;;;;;;;24.03;10.40;;;;;;;;;;4997483;28;20212;-81
2021/12/14 08:55:18;;;;;;;26.93;11.80;;;;;;;;;;5008142;28;20751;-80
2021/12/14 08:57:45;;;;;;;20.13;9.47;;;;;;;;;;4995590;28;20642;-81
2021/12/14 09:00:16;;;;;;;32.57;12.70;;;;;;;;;;5003575;28;20256;-80
2021/12/14 09:02:45;;;;;;;30.90;12.97;;;;;;;;;;4999319;28;20204;-81
2021/12/14 09:05:15;;;;;;;69.83;33.40;;;;;;;;;;5002302;28;20205;-81
2021/12/14 09:07:47;;;;;;;37.50;17.87;;;;;;;;;;5003149;28;20247;-80
2021/12/14 09:10:28;;;;;;;38.43;16.63;;;;;;;;;;5009380;28;20231;-80
2021/12/14 09:12:59;;;;;;;33.27;15.63;;;;;;;;;;5001663;28;20242;-80
2021/12/14 09:15:33;;;;;;;33.63;15.63;;;;;;;;;;5003487;28;20288;-81
2021/12/14 09:18:00;;;;;;;26.17;11.57;;;;;;;;;;4999392;28;20644;-81
2021/12/14 09:20:31;;;;;;;25.53;10.27;;;;;;;;;;5008142;28;20252;-80
2021/12/14 09:23:05;;;;;;;28.73;11.53;;;;;;;;;;5004323;28;20564;-82
2021/12/14 09:25:41;;;;;;;62.70;26.83;;;;;;;;;;5006408;28;20216;-81
2021/12/14 09:28:11;;;;;;;48.60;22.20;;;;;;;;;;5005856;28;20239;-80
2021/12/14 09:30:49;;;;;;;39.97;16.90;;;;;;;;;;5005843;28;20224;-81
2021/12/14 09:33:17;;;;;;;29.60;14.30;;;;;;;;;;5004027;28;20209;-81
2021/12/14 09:35:45;;;;;;;32.57;13.60;;;;;;;;;;4999457;28;20216;-80
2021/12/14 09:38:14;;;;;;;28.23;12.00;;;;;;;;;;4997701;28;20274;-80
2021/12/14 09:40:43;;;;;;;20.10;9.43;;;;;;;;;;5002338;28;20592;-79
2021/12/14 09:43:11;;;;;;;21.67;9.83;;;;;;;;;;4993338;28;20372;-79
2021/12/14 09:45:43;;;;;;;17.67;8.50;;;;;;;;;;4997846;28;20233;-82
2021/12/14 09:48:12;;;;;;;20.20;9.30;;;;;;;;;;4998868;28;20244;-82
2021/12/14 09:50:41;;;;;;;22.77;11.90;;;;;;;;;;5011414;28;20240;-79
2021/12/14 09:53:10;;;;;;;35.60;15.87;;;;;;;;;;5006415;28;20287;-80
2021/12/14 09:55:39;;;;;;;20.67;9.70;;;;;;;;;;5002123;28;20215;-81
2021/12/14 09:58:07;;;;;;;124.93;62.80;;;;;;;;;;5001626;28;20205;-80
2021/12/14 10:00:37;;;;;;;25.67;13.77;;;;;;;;;;5005969;28;20200;-82
2021/12/14 10:03:06;;;;;;;30.87;13.90;;;;;;;;;;5008983;28;20246;-81
2021/12/14 10:05:35;;;;;;;18.77;8.63;;;;;;;;;;5004188;28;20244;-82
2021/12/14 10:08:03;;;;;;;16.83;7.80;;;;;;;;;;5001674;28;20729;-82
2021/12/14 10:10:36;;;;;;;14.40;7.17;;;;;;;;;;5000639;28;20279;-82
2021/12/14 10:13:03;;;;;;;15.27;7.03;;;;;;;;;;5002105;28;20209;-81
2021/12/14 10:15:33;;;;;;;13.17;7.17;;;;;;;;;;5000191;28;20299;-82
2021/12/14 10:18:03;;;;;;;21.67;10.23;;;;;;;;;;5002639;28;20351;-82
2021/12/14 10:20:34;;;;;;;20.00;9.87;;;;;;;;;;5004675;28;20212;-82
2021/12/14 10:23:01;;;;;;;25.37;13.03;;;;;;;;;;5000210;28;20292;-81
2021/12/14 10:25:29;;;;;;;18.30;9.13;;;;;;;;;;5005081;28;20239;-80
2021/12/14 10:27:57;;;;;;;20.13;8.20;;;;;;;;;;5001152;28;20260;-82
2021/12/14 10:30:27;;;;;;;16.73;8.13;;;;;;;;;;5002498;28;20231;-80
2021/12/14 10:32:54;;;;;;;16.77;7.70;;;;;;;;;;4997989;28;20434;-81
2021/12/14 10:35:24;;;;;;;13.57;7.03;;;;;;;;;;4999451;28;20263;-80
2021/12/14 10:37:57;;;;;;;14.63;7.70;;;;;;;;;;4999388;28;20244;-81
2021/12/14 10:43:23;;;;;;;15.93;7.00;;;;;;;;;;5002053;28;20291;-83
2021/12/14 10:45:52;;;;;;;14.93;7.73;;;;;;;;;;4999540;28;20235;-82
2021/12/14 10:48:21;;;;;;;13.23;6.83;;;;;;;;;;4998421;28;20256;-84
2021/12/14 10:50:49;;;;;;;13.00;6.80;;;;;;;;;;5002247;28;20288;-84
2021/12/14 10:53:21;;;;;;;14.80;7.20;;;;;;;;;;5005740;28;20241;-82
2021/12/14 10:55:50;;;;;;;15.03;7.40;;;;;;;;;;5006281;28;20223;-82
2021/12/14 10:58:18;;;;;;;18.20;7.37;;;;;;;;;;5003409;28;20675;-81
2021/12/14 11:00:48;;;;;;;16.83;7.30;;;;;;;;;;5002416;28;20597;-81
2021/12/14 11:03:17;;;;;;;13.80;6.87;;;;;;;;;;5003858;28;21175;-82
2021/12/14 11:05:46;;;;;;;12.60;6.20;;;;;;;;;;5004264;28;20219;-82
2021/12/14 11:08:33;;;;;;;13.87;7.27;;;;;;;;;;5000972;28;20559;-82
2021/12/14 11:11:02;;;;;;;15.10;7.30;;;;;;;;;;5005574;28;20319;-82
2021/12/14 11:13:38;;;;;;;12.70;6.77;;;;;;;;;;5002279;28;20236;-82
2021/12/14 11:16:06;;;;;;;14.70;7.17;;;;;;;;;;5003026;28;20216;-82
2021/12/14 11:18:32;;;;;;;15.33;6.83;;;;;;;;;;5001552;28;20232;-82
2021/12/14 11:21:02;;;;;;;13.30;6.97;;;;;;;;;;5008585;28;20208;-82
2021/12/14 11:23:30;;;;;;;12.53;5.73;;;;;;;;;;5008212;28;20734;-82
2021/12/14 11:26:01;;;;;;;14.93;6.70;;;;;;;;;;5007285;28;20200;-83
2021/12/14 11:28:33;;;;;;;13.00;6.20;;;;;;;;;;5010392;28;20296;-81
2021/12/14 11:31:02;;;;;;;12.20;6.23;;;;;;;;;;5006138;28;20228;-80
2021/12/14 11:33:30;;;;;;;12.93;6.17;;;;;;;;;;5004838;28;20217;-80
2021/12/14 11:36:02;;;;;;;11.63;5.87;;;;;;;;;;5010414;28;20205;-81
2021/12/14 11:38:31;;;;;;;12.23;5.87;;;;;;;;;;5010842;28;20291;-81
2021/12/14 11:40:59;;;;;;;11.73;5.17;;;;;;;;;;5003422;28;20307;-81
2021/12/14 11:43:30;;;;;;;12.57;5.77;;;;;;;;;;5007147;28;20235;-81
2021/12/14 11:45:59;;;;;;;15.53;5.90;;;;;;;;;;5008579;28;20217;-83
2021/12/14 11:48:30;;;;;;;8.73;4.57;;;;;;;;;;5009148;28;20757;-83
2021/12/14 11:50:58;;;;;;;9.70;5.00;;;;;;;;;;5008747;28;20208;-82
2021/12/14 11:53:26;;;;;;;8.80;4.83;;;;;;;;;;5009233;28;20279;-82
2021/12/14 11:55:55;;;;;;;9.50;4.53;;;;;;;;;;5010115;28;20212;-82
2021/12/14 11:58:27;;;;;;;9.30;4.87;;;;;;;;;;5006399;28;20200;-82
2021/12/14 12:00:56;;;;;;;10.43;4.53;;;;;;;;;;5007395;28;20232;-81
2021/12/14 12:03:30;;;;;;;10.10;4.87;;;;;;;;;;5011332;28;20264;-81
2021/12/14 12:06:02;;;;;;;7.77;3.93;;;;;;;;;;5012310;28;20210;-82
2021/12/14 12:11:16;;;;;;;7.83;4.10;;;;;;;;;;5003286;28;20203;-82
2021/12/14 12:13:44;;;;;;;7.27;4.53;;;;;;;;;;5007195;28;20204;-82
2021/12/14 12:16:13;;;;;;;11.23;6.13;;;;;;;;;;5009433;28;20356;-82
2021/12/14 12:19:01;;;;;;;8.43;4.73;;;;;;;;;;5010810;28;20357;-82
2021/12/14 12:21:29;;;;;;;10.83;4.97;;;;;;;;;;5006943;28;20239;-82
2021/12/14 12:23:56;;;;;;;14.87;7.63;;;;;;;;;;5016562;28;20228;-82
2021/12/14 12:26:28;;;;;;;12.43;6.23;;;;;;;;;;5009842;28;20240;-82
2021/12/14 12:31:35;;;;;;;11.10;6.33;;;;;;;;;;5053824;28;20234;-83
2021/12/14 12:34:04;;;;;;;16.60;6.20;;;;;;;;;;5059930;28;20228;-82
2021/12/14 12:36:35;;;;;;;11.93;6.40;;;;;;;;;;5064900;28;20274;-82
2021/12/14 12:39:06;;;;;;;15.53;7.03;;;;;;;;;;5057464;28;20264;-82
2021/12/14 12:41:38;;;;;;;20.37;10.77;;;;;;;;;;5057176;28;20563;-82
2021/12/14 12:44:07;;;;;;;14.63;7.60;;;;;;;;;;5061544;28;20211;-81
2021/12/14 12:46:36;;;;;;;12.67;7.57;;;;;;;;;;5058146;28;20634;-83
2021/12/14 12:49:10;;;;;;;11.77;6.90;;;;;;;;;;5058673;28;20235;-83
2021/12/14 12:51:43;;;;;;;12.83;7.17;;;;;;;;;;5066802;28;20235;-83
2021/12/14 12:54:16;;;;;;;12.90;6.90;;;;;;;;;;5061133;28;20254;-83
2021/12/14 12:56:43;;;;;;;12.30;6.90;;;;;;;;;;5057009;28;20226;-81
2021/12/14 12:59:12;;;;;;;13.63;7.40;;;;;;;;;;5065448;28;20267;-83
2021/12/14 13:01:40;;;;;;;15.00;7.83;;;;;;;;;;5062073;28;20194;-84
2021/12/14 13:04:08;;;;;;;12.63;7.10;;;;;;;;;;5060527;28;20678;-82
2021/12/14 13:06:36;;;;;;;14.93;6.60;;;;;;;;;;5055895;28;20699;-82
2021/12/14 13:09:03;;;;;;;15.20;7.27;;;;;;;;;;5061522;28;20270;-82
2021/12/14 13:11:35;;;;;;;13.97;7.20;;;;;;;;;;5056839;28;20231;-82
2021/12/14 13:14:05;;;;;;;14.80;8.20;;;;;;;;;;5061963;28;20243;-83
2021/12/14 13:16:33;;;;;;;13.93;8.27;;;;;;;;;;5064001;28;20253;-83
2021/12/14 13:19:01;;;;;;;19.33;10.07;;;;;;;;;;5034266;28;20230;-83
2021/12/14 13:21:40;;;;;;;15.23;8.20;;;;;;;;;;5060204;28;20279;-82
2021/12/14 13:24:17;;;;;;;15.10;8.77;;;;;;;;;;5077935;28;20182;-82
2021/12/14 13:26:50;;;;;;;14.10;8.27;;;;;;;;;;5056504;28;20293;-82
2021/12/14 13:29:26;;;;;;;14.70;8.03;;;;;;;;;;5054478;28;20254;-82
2021/12/14 13:31:55;;;;;;;16.33;8.83;;;;;;;;;;5055190;28;20202;-83
2021/12/14 13:34:24;;;;;;;14.80;8.57;;;;;;;;;;5061608;28;20280;-82
2021/12/14 13:36:56;;;;;;;16.07;8.73;;;;;;;;;;5048944;28;20218;-83
2021/12/14 13:39:24;;;;;;;18.53;8.93;;;;;;;;;;5050694;28;20231;-82
2021/12/14 13:42:01;;;;;;;17.07;9.33;;;;;;;;;;5047617;28;20207;-82
2021/12/14 13:44:29;;;;;;;15.57;8.10;;;;;;;;;;5051611;28;20221;-82
2021/12/14 13:46:57;;;;;;;14.87;8.20;;;;;;;;;;5065095;28;20297;-82
2021/12/14 13:49:25;;;;;;;18.43;8.60;;;;;;;;;;5065838;28;20268;-82
2021/12/14 13:51:54;;;;;;;13.90;8.07;;;;;;;;;;5057482;28;20199;-83
2021/12/14 13:54:22;;;;;;;16.17;8.60;;;;;;;;;;5064486;28;20293;-82
2021/12/14 13:56:50;;;;;;;14.60;8.00;;;;;;;;;;5060532;28;20257;-82
2021/12/14 13:59:19;;;;;;;15.90;8.87;;;;;;;;;;5050454;28;20279;-82
2021/12/14 14:01:48;;;;;;;14.67;7.93;;;;;;;;;;5059835;28;20203;-83
2021/12/14 14:04:17;;;;;;;19.27;8.83;;;;;;;;;;5054523;28;20552;-82
2021/12/14 14:06:44;;;;;;;20.97;12.57;;;;;;;;;;5053749;28;20666;-83
2021/12/14 14:09:15;;;;;;;17.87;10.03;;;;;;;;;;5057708;28;20242;-82
2021/12/14 14:11:47;;;;;;;20.50;11.07;;;;;;;;;;5058342;28;20295;-82
2021/12/14 14:14:21;;;;;;;22.50;11.63;;;;;;;;;;5048994;28;20634;-83
2021/12/14 14:16:50;;;;;;;17.17;9.30;;;;;;;;;;5057644;28;20256;-83
2021/12/14 14:19:19;;;;;;;19.13;9.80;;;;;;;;;;5055609;28;20226;-83
2021/12/14 14:21:50;;;;;;;22.03;10.07;;;;;;;;;;5060991;28;20245;-83
2021/12/14 14:24:23;;;;;;;16.67;9.03;;;;;;;;;;5046255;28;20560;-82
2021/12/14 14:26:52;;;;;;;18.93;8.60;;;;;;;;;;5047528;28;20611;-82
2021/12/14 14:29:20;;;;;;;18.50;9.20;;;;;;;;;;5048706;28;20343;-82
2021/12/14 14:31:50;;;;;;;16.10;8.60;;;;;;;;;;5053586;28;20223;-83
2021/12/14 14:34:21;;;;;;;17.43;9.33;;;;;;;;;;5051711;28;20272;-83
2021/12/14 14:36:56;;;;;;;18.90;9.47;;;;;;;;;;5057826;28;20206;-83
2021/12/14 14:39:25;;;;;;;18.90;9.73;;;;;;;;;;5054014;28;20235;-83
2021/12/14 14:41:53;;;;;;;16.47;8.70;;;;;;;;;;5055484;28;20230;-82
2021/12/14 14:44:25;;;;;;;18.87;9.37;;;;;;;;;;5054604;28;20282;-82
2021/12/14 14:47:10;;;;;;;18.40;9.73;;;;;;;;;;5054003;28;20242;-82
2021/12/14 14:49:56;;;;;;;16.83;9.67;;;;;;;;;;5054944;28;20257;-83
2021/12/14 14:52:24;;;;;;;17.70;9.90;;;;;;;;;;5052011;28;20199;-82
2021/12/14 14:54:54;;;;;;;22.07;11.20;;;;;;;;;;5052657;28;20290;-82
2021/12/14 14:57:32;;;;;;;19.37;9.93;;;;;;;;;;5057917;28;20262;-83
2021/12/14 15:00:27;;;;;;;21.77;10.27;;;;;;;;;;5055823;28;20796;-82
2021/12/14 15:02:56;;;;;;;29.07;10.80;;;;;;;;;;5003748;28;20784;-82
2021/12/14 15:05:30;;;;;;;18.40;10.07;;;;;;;;;;5055442;28;20233;-83
2021/12/14 15:08:01;;;;;;;22.20;10.47;;;;;;;;;;5051328;28;20383;-82
2021/12/14 15:10:33;;;;;;;21.47;10.13;;;;;;;;;;5053404;28;20231;-83
2021/12/14 15:13:27;;;;;;;22.30;10.50;;;;;;;;;;5054225;28;20356;-82
2021/12/14 15:16:03;;;;;;;20.57;10.93;;;;;;;;;;5022125;28;20207;-83
2021/12/14 15:18:49;;;;;;;22.97;12.37;;;;;;;;;;5049659;28;20257;-83
2021/12/14 15:21:31;;;;;;;21.93;10.87;;;;;;;;;;5052636;28;20290;-83
2021/12/14 15:23:59;;;;;;;18.57;9.17;;;;;;;;;;5004263;28;20210;-83
2021/12/14 15:26:27;;;;;;;17.30;9.80;;;;;;;;;;5053036;28;20276;-83
2021/12/14 15:29:09;;;;;;;18.43;10.83;;;;;;;;;;5056989;28;20295;-83
2021/12/14 15:31:36;;;;;;;21.90;9.50;;;;;;;;;;5054290;28;20670;-83
2021/12/14 15:34:04;;;;;;;16.53;8.43;;;;;;;;;;5054955;28;20289;-82
2021/12/14 15:36:31;;;;;;;17.93;8.97;;;;;;;;;;5055304;28;20283;-83
2021/12/14 15:39:00;;;;;;;18.40;9.07;;;;;;;;;;5058091;28;20714;-83
2021/12/14 15:41:31;;;;;;;20.63;9.73;;;;;;;;;;5058211;28;20264;-83
2021/12/14 15:44:07;;;;;;;19.23;10.00;;;;;;;;;;5055247;28;20206;-83
2021/12/14 15:46:36;;;;;;;25.07;11.93;;;;;;;;;;5049634;28;20213;-83
2021/12/14 15:49:18;;;;;;;21.03;9.60;;;;;;;;;;5052008;28;20739;-83
2021/12/14 15:51:47;;;;;;;22.77;10.03;;;;;;;;;;5047177;28;20238;-83
2021/12/14 15:54:16;;;;;;;22.40;10.17;;;;;;;;;;5051158;28;20226;-83
2021/12/14 15:56:46;;;;;;;19.77;10.37;;;;;;;;;;5049615;28;20294;-83
2021/12/14 15:59:15;;;;;;;17.43;9.40;;;;;;;;;;5049716;28;20258;-83
2021/12/14 16:01:44;;;;;;;18.40;9.60;;;;;;;;;;5047883;28;20207;-83
2021/12/14 16:04:13;;;;;;;17.80;9.47;;;;;;;;;;5053381;28;20210;-83
2021/12/14 16:06:42;;;;;;;23.20;10.50;;;;;;;;;;5060732;28;20296;-84
2021/12/14 16:09:10;;;;;;;20.87;10.33;;;;;;;;;;5056052;28;20260;-84
2021/12/14 16:11:56;;;;;;;19.33;10.13;;;;;;;;;;5068728;28;20207;-83
2021/12/14 16:17:12;;;;;;;20.93;10.67;;;;;;;;;;5056290;28;20574;-83
2021/12/14 16:19:39;;;;;;;20.80;10.00;;;;;;;;;;5051721;28;20258;-83
2021/12/14 16:22:08;;;;;;;24.40;11.37;;;;;;;;;;5056972;28;20571;-83
2021/12/14 16:24:36;;;;;;;22.77;11.03;;;;;;;;;;5050780;28;20210;-83
2021/12/14 16:27:04;;;;;;;22.60;11.17;;;;;;;;;;5054265;28;20279;-84
2021/12/14 16:29:34;;;;;;;24.80;11.67;;;;;;;;;;5055347;28;20231;-83
2021/12/14 16:32:01;;;;;;;24.43;10.33;;;;;;;;;;5054756;28;20758;-83
2021/12/14 16:34:30;;;;;;;20.50;10.63;;;;;;;;;;5054170;28;20198;-84
2021/12/14 16:36:58;;;;;;;22.10;11.20;;;;;;;;;;5055019;28;20210;-83
2021/12/14 16:39:26;;;;;;;29.10;14.10;;;;;;;;;;5057265;28;20225;-83
2021/12/14 16:41:54;;;;;;;30.83;13.50;;;;;;;;;;5058717;28;20371;-83
2021/12/14 16:44:23;;;;;;;28.67;14.43;;;;;;;;;;5056379;28;20278;-83
2021/12/14 16:46:55;;;;;;;28.63;14.33;;;;;;;;;;5057158;28;20206;-82
2021/12/14 16:49:23;;;;;;;28.90;13.37;;;;;;;;;;5060009;28;20234;-81
2021/12/14 16:51:52;;;;;;;22.40;10.90;;;;;;;;;;5055642;28;20300;-82
2021/12/14 16:54:21;;;;;;;24.10;10.63;;;;;;;;;;5056034;28;20207;-81
2021/12/14 16:56:49;;;;;;;21.60;10.87;;;;;;;;;;5056317;28;20203;-81
2021/12/14 16:59:19;;;;;;;24.13;12.67;;;;;;;;;;5057869;28;20227;-82
2021/12/14 17:01:50;;;;;;;25.00;13.10;;;;;;;;;;5055882;28;20622;-82
2021/12/14 17:04:22;;;;;;;32.73;14.67;;;;;;;;;;5059333;28;20262;-81
2021/12/14 17:06:51;;;;;;;29.70;13.27;;;;;;;;;;5055593;28;20263;-82
2021/12/14 17:09:18;;;;;;;28.40;13.10;;;;;;;;;;5057002;28;20666;-82
2021/12/14 17:11:49;;;;;;;20.30;9.50;;;;;;;;;;5053800;28;20211;-82
2021/12/14 17:14:24;;;;;;;25.87;11.20;;;;;;;;;;5056213;28;20198;-81
2021/12/14 17:16:54;;;;;;;31.57;13.67;;;;;;;;;;5060857;28;20214;-81
2021/12/14 17:19:23;;;;;;;26.83;12.57;;;;;;;;;;5059201;28;20211;-81
2021/12/14 17:21:53;;;;;;;26.73;13.07;;;;;;;;;;5054449;28;20224;-83
2021/12/14 17:24:22;;;;;;;29.47;13.40;;;;;;;;;;5054259;28;20289;-82
2021/12/14 17:26:50;;;;;;;30.33;14.63;;;;;;;;;;5056893;28;20242;-82
2021/12/14 17:29:19;;;;;;;26.40;13.63;;;;;;;;;;5052805;28;20250;-83
2021/12/14 17:31:48;;;;;;;27.67;13.80;;;;;;;;;;5053345;28;20299;-82
2021/12/14 17:34:17;;;;;;;27.67;13.87;;;;;;;;;;5063269;28;20267;-81
2021/12/14 17:36:47;;;;;;;86.60;35.77;;;;;;;;;;5069739;28;20187;-83
2021/12/14 17:39:17;;;;;;;34.47;14.27;;;;;;;;;;5072782;28;20206;-82
2021/12/14 17:41:46;;;;;;;34.37;17.67;;;;;;;;;;5052058;28;20242;-82
2021/12/14 17:44:15;;;;;;;32.43;15.73;;;;;;;;;;5047369;28;20239;-81
2021/12/14 17:46:43;;;;;;;32.60;16.40;;;;;;;;;;5046813;28;20234;-81
2021/12/14 17:49:12;;;;;;;33.03;15.80;;;;;;;;;;5047644;28;20253;-83
2021/12/14 17:51:53;;;;;;;34.67;15.70;;;;;;;;;;5045815;28;20225;-81
2021/12/14 17:54:26;;;;;;;35.77;15.67;;;;;;;;;;5045045;28;20658;-82
2021/12/14 17:57:04;;;;;;;29.30;14.27;;;;;;;;;;5044014;28;20206;-83
2021/12/14 17:59:35;;;;;;;29.27;13.73;;;;;;;;;;5050858;28;20244;-82
2021/12/14 18:02:02;;;;;;;29.03;14.97;;;;;;;;;;5047166;28;20792;-82
2021/12/14 18:04:33;;;;;;;31.07;15.47;;;;;;;;;;5045209;28;20233;-82
2021/12/14 18:07:00;;;;;;;30.20;14.77;;;;;;;;;;5045973;28;20215;-82
2021/12/14 18:09:29;;;;;;;32.97;15.93;;;;;;;;;;5042229;28;20254;-83
2021/12/14 18:11:56;;;;;;;38.27;19.77;;;;;;;;;;5045391;28;20203;-82
2021/12/14 18:14:27;;;;;;;35.53;17.10;;;;;;;;;;5051239;28;20256;-82
2021/12/14 18:17:00;;;;;;;38.47;18.23;;;;;;;;;;5054076;28;20206;-83
2021/12/14 18:19:32;;;;;;;36.10;17.33;;;;;;;;;;5059436;28;20811;-83
2021/12/14 18:22:00;;;;;;;35.27;17.73;;;;;;;;;;5050240;28;20203;-82
2021/12/14 18:24:30;;;;;;;39.30;18.20;;;;;;;;;;5053896;28;20228;-82
2021/12/14 18:26:59;;;;;;;38.33;18.77;;;;;;;;;;5043036;28;20659;-83
2021/12/14 18:29:27;;;;;;;40.73;20.57;;;;;;;;;;5043449;28;20710;-84
2021/12/14 18:31:55;;;;;;;47.63;24.27;;;;;;;;;;5039581;28;20222;-84
2021/12/14 18:34:22;;;;;;;61.83;29.13;;;;;;;;;;5061998;22;20193;-83
2021/12/14 18:36:53;;;;;;;36.53;17.83;;;;;;;;;;5063171;28;20236;-83
2021/12/14 18:39:23;;;;;;;39.10;19.97;;;;;;;;;;5063566;28;20199;-83
2021/12/14 18:42:02;;;;;;;41.07;20.93;;;;;;;;;;5063261;28;20216;-83
2021/12/14 18:44:29;;;;;;;49.57;23.97;;;;;;;;;;5068626;28;20262;-84
2021/12/14 18:47:12;;;;;;;49.23;22.57;;;;;;;;;;5064310;28;20228;-81
2021/12/14 18:49:40;;;;;;;43.30;19.90;;;;;;;;;;5063324;28;20264;-83
2021/12/14 18:52:08;;;;;;;41.13;18.30;;;;;;;;;;5070522;28;20195;-82
2021/12/14 18:54:36;;;;;;;38.97;18.87;;;;;;;;;;5073738;28;20291;-82
2021/12/14 18:57:06;;;;;;;40.00;18.80;;;;;;;;;;5066491;28;20248;-82
2021/12/14 18:59:37;;;;;;;45.30;18.37;;;;;;;;;;5066505;28;20202;-81
2021/12/14 19:02:11;;;;;;;33.53;15.83;;;;;;;;;;5064671;28;20262;-83
2021/12/14 19:04:40;;;;;;;31.53;15.63;;;;;;;;;;5067220;28;20218;-82
2021/12/14 19:07:07;;;;;;;33.57;17.00;;;;;;;;;;5071464;28;20202;-82
2021/12/14 19:09:37;;;;;;;34.70;17.77;;;;;;;;;;5077785;28;20211;-82
2021/12/14 19:12:09;;;;;;;36.77;18.07;;;;;;;;;;5074451;28;20209;-82
2021/12/14 19:14:37;;;;;;;36.37;16.73;;;;;;;;;;5071622;28;20226;-82
2021/12/14 19:17:06;;;;;;;35.70;17.90;;;;;;;;;;5067269;28;20202;-83
2021/12/14 19:19:35;;;;;;;36.33;16.40;;;;;;;;;;5072832;28;20457;-83
2021/12/14 19:22:07;;;;;;;37.50;16.27;;;;;;;;;;5073603;28;20195;-82
2021/12/14 19:24:35;;;;;;;33.63;16.07;;;;;;;;;;5068182;28;20233;-82
2021/12/14 19:27:05;;;;;;;35.93;17.50;;;;;;;;;;5062460;28;20704;-82
2021/12/14 19:29:35;;;;;;;32.03;16.57;;;;;;;;;;5058013;28;20242;-82
2021/12/14 19:32:04;;;;;;;36.07;16.27;;;;;;;;;;5055412;28;20289;-82
2021/12/14 19:34:33;;;;;;;37.67;17.57;;;;;;;;;;5062605;28;20242;-82
2021/12/14 19:37:01;;;;;;;32.93;16.03;;;;;;;;;;5065175;28;20206;-82
2021/12/14 19:39:31;;;;;;;35.90;17.30;;;;;;;;;;5063668;28;20210;-82
2021/12/14 19:42:08;;;;;;;38.17;16.40;;;;;;;;;;5069598;28;20221;-82
2021/12/14 19:44:39;;;;;;;29.93;16.30;;;;;;;;;;5059629;28;20256;-83
2021/12/14 19:47:08;;;;;;;34.47;16.40;;;;;;;;;;5066549;28;20230;-82
2021/12/14 19:49:38;;;;;;;32.40;15.10;;;;;;;;;;5059297;28;20226;-81
2021/12/14 19:52:07;;;;;;;30.10;15.80;;;;;;;;;;5065362;28;20206;-82
2021/12/14 19:54:40;;;;;;;35.33;16.70;;;;;;;;;;5063142;28;20229;-82
2021/12/14 19:57:07;;;;;;;35.77;16.33;;;;;;;;;;5065981;28;20602;-83
2021/12/14 19:59:36;;;;;;;30.77;16.50;;;;;;;;;;5065533;28;20207;-82
2021/12/14 20:02:08;;;;;;;29.80;14.73;;;;;;;;;;5060952;28;20232;-82
2021/12/14 20:04:37;;;;;;;34.53;16.47;;;;;;;;;;5068400;28;20218;-81
2021/12/14 20:07:05;;;;;;;36.20;16.77;;;;;;;;;;5061053;28;20543;-83
2021/12/14 20:09:34;;;;;;;36.73;16.87;;;;;;;;;;5061558;28;20254;-83
2021/12/14 20:12:05;;;;;;;32.43;16.10;;;;;;;;;;5059262;28;20712;-81
2021/12/14 20:14:34;;;;;;;37.67;16.17;;;;;;;;;;5063259;28;20254;-80
2021/12/14 20:17:03;;;;;;;27.97;14.33;;;;;;;;;;5065426;28;20263;-81
2021/12/14 20:19:34;;;;;;;29.07;15.53;;;;;;;;;;5058086;28;20286;-82
2021/12/14 20:22:04;;;;;;;32.67;15.97;;;;;;;;;;5058698;28;20218;-82
2021/12/14 20:24:32;;;;;;;30.47;16.07;;;;;;;;;;5061525;28;20269;-80
2021/12/14 20:27:02;;;;;;;33.20;15.47;;;;;;;;;;5066390;28;20275;-85
2021/12/14 20:29:31;;;;;;;31.20;15.63;;;;;;;;;;5068404;28;20206;-84